createdAt,value
2018-05-25T00:00:41.846Z,4.55
2018-05-25T00:03:09.393Z,4.60
2018-05-25T00:05:37.695Z,3.90
2018-05-25T00:08:05.233Z,4.40
2018-05-25T00:10:32.797Z,4.75
2018-05-25T00:13:01.089Z,4.20
2018-05-25T00:15:28.645Z,4.65
2018-05-25T00:17:56.206Z,4.45
2018-05-25T00:20:24.509Z,4.75
2018-05-25T00:22:52.042Z,4.07
2018-05-25T00:25:19.564Z,5.65
2018-05-25T00:27:47.109Z,4.82
2018-05-25T00:30:14.683Z,5.35
2018-05-25T00:32:42.240Z,5.40
2018-05-25T00:35:09.772Z,4.68
2018-05-25T00:37:38.094Z,4.40
2018-05-25T00:40:05.654Z,4.93
2018-05-25T00:42:33.266Z,4.45
2018-05-25T00:45:00.817Z,4.82
2018-05-25T00:47:28.354Z,4.60
2018-05-25T00:49:55.902Z,4.65
2018-05-25T00:52:23.441Z,5.47
2018-05-25T00:55:03.682Z,5.20
2018-05-25T00:57:32.001Z,4.47
2018-05-25T00:59:59.542Z,5.00
2018-05-25T01:02:27.866Z,5.20
2018-05-25T01:04:55.396Z,4.80
2018-05-25T01:07:22.954Z,5.82
2018-05-25T01:09:50.514Z,4.72
2018-05-25T01:12:18.822Z,4.90
2018-05-25T01:14:46.347Z,4.78
2018-05-25T01:17:14.650Z,5.85
2018-05-25T01:19:42.227Z,4.70
2018-05-25T01:22:09.762Z,5.00
2018-05-25T01:24:38.085Z,4.95
2018-05-25T01:27:05.642Z,4.65
2018-05-25T01:29:33.188Z,5.35
2018-05-25T01:32:00.725Z,4.35
2018-05-25T01:34:29.050Z,4.90
2018-05-25T01:36:56.596Z,4.65
2018-05-25T01:39:24.149Z,4.45
2018-05-25T01:41:52.484Z,4.30
2018-05-25T01:44:20.009Z,4.90
2018-05-25T01:46:47.583Z,5.15
2018-05-25T01:49:15.118Z,5.87
2018-05-25T01:51:43.481Z,5.35
2018-05-25T01:54:11.018Z,4.75
2018-05-25T01:56:38.569Z,4.70
2018-05-25T01:59:06.097Z,5.47
2018-05-25T02:01:38.374Z,5.15
2018-05-25T02:04:05.934Z,5.18
2018-05-25T02:06:33.477Z,4.45
2018-05-25T02:09:01.034Z,5.00
2018-05-25T02:11:28.570Z,5.60
2018-05-25T02:13:56.127Z,5.05
2018-05-25T02:16:23.675Z,6.22
2018-05-25T02:18:51.206Z,4.40
2018-05-25T02:21:19.526Z,5.05
2018-05-25T02:23:47.062Z,5.30
2018-05-25T02:26:15.461Z,5.22
2018-05-25T02:28:43.064Z,5.62
2018-05-25T02:31:10.626Z,5.75
2018-05-25T02:33:38.190Z,4.60
2018-05-25T02:36:05.786Z,4.87
2018-05-25T02:38:34.112Z,5.35
2018-05-25T02:41:01.699Z,6.32
2018-05-25T02:43:29.260Z,5.90
2018-05-25T02:45:56.817Z,5.22
2018-05-25T02:48:24.357Z,5.10
2018-05-25T02:50:51.922Z,5.00
2018-05-25T02:53:19.478Z,5.65
2018-05-25T02:55:47.027Z,5.10
2018-05-25T02:58:15.351Z,5.05
2018-05-25T03:00:42.885Z,5.70
2018-05-25T03:03:10.442Z,5.53
2018-05-25T03:05:38.002Z,5.28
2018-05-25T03:08:06.326Z,4.35
2018-05-25T03:10:33.857Z,5.18
2018-05-25T03:13:01.391Z,5.75
2018-05-25T03:15:28.922Z,5.60
2018-05-25T03:17:56.478Z,4.80
2018-05-25T03:20:24.029Z,5.00
2018-05-25T03:22:51.590Z,4.80
2018-05-25T03:25:19.116Z,4.97
2018-05-25T03:27:46.669Z,5.20
2018-05-25T03:30:14.246Z,7.45
2018-05-25T03:32:42.553Z,5.28
2018-05-25T03:35:10.107Z,4.85
2018-05-25T03:37:37.647Z,5.05
2018-05-25T03:40:05.210Z,5.82
2018-05-25T03:42:32.746Z,5.90
2018-05-25T03:45:00.302Z,5.68
2018-05-25T03:47:27.848Z,6.80
2018-05-25T03:49:55.390Z,6.70
2018-05-25T03:52:23.710Z,7.70
2018-05-25T03:54:51.271Z,6.37
2018-05-25T03:57:18.820Z,9.00
2018-05-25T03:59:58.256Z,7.50
2018-05-25T04:02:26.668Z,8.00
2018-05-25T04:04:54.230Z,7.93
2018-05-25T04:07:21.790Z,6.25
2018-05-25T04:09:49.326Z,7.50
2018-05-25T04:12:16.882Z,8.30
2018-05-25T04:14:44.422Z,8.48
2018-05-25T04:17:12.726Z,9.00
2018-05-25T04:19:40.266Z,8.80
2018-05-25T04:22:07.834Z,7.35
2018-05-25T04:24:36.138Z,8.23
2018-05-25T04:27:03.666Z,7.53
2018-05-25T04:29:31.233Z,7.95
2018-05-25T04:31:58.794Z,6.95
2018-05-25T04:34:26.336Z,7.75
2018-05-25T04:36:53.897Z,7.97
2018-05-25T04:39:21.536Z,7.72
2018-05-25T04:41:49.095Z,7.80
2018-05-25T04:44:16.638Z,8.48
2018-05-25T04:46:44.934Z,7.10
2018-05-25T04:49:12.499Z,9.30
2018-05-25T04:51:40.099Z,7.15
2018-05-25T04:54:07.658Z,8.02
2018-05-25T04:56:35.199Z,7.95
2018-05-25T04:59:02.724Z,6.20
2018-05-25T05:01:30.295Z,6.72
2018-05-25T05:03:58.630Z,7.60
2018-05-25T05:06:26.169Z,8.45
2018-05-25T05:08:53.726Z,7.20
2018-05-25T05:11:21.263Z,7.10
2018-05-25T05:13:50.481Z,9.15
2018-05-25T05:16:18.894Z,7.95
2018-05-25T05:18:46.454Z,7.93
2018-05-25T05:21:13.994Z,7.60
2018-05-25T05:23:42.309Z,7.82
2018-05-25T05:26:09.836Z,8.80
2018-05-25T05:28:38.153Z,8.35
2018-05-25T05:31:05.907Z,8.48
2018-05-25T05:33:33.507Z,8.20
2018-05-25T05:36:01.091Z,8.20
2018-05-25T05:38:28.650Z,8.15
2018-05-25T05:40:56.281Z,7.90
2018-05-25T05:43:25.890Z,7.47
2018-05-25T05:45:54.286Z,7.80
2018-05-25T05:48:22.659Z,8.75
2018-05-25T05:50:50.206Z,7.82
2018-05-25T05:53:17.775Z,8.40
2018-05-25T05:55:45.334Z,8.15
2018-05-25T05:58:12.856Z,7.90
2018-05-25T06:00:40.476Z,6.78
2018-05-25T06:03:08.025Z,6.35
2018-05-25T06:05:35.601Z,6.53
2018-05-25T06:08:03.134Z,6.87
2018-05-25T06:10:31.421Z,6.85
2018-05-25T06:12:58.991Z,7.05
2018-05-25T06:15:26.533Z,6.95
2018-05-25T06:17:54.827Z,7.32
2018-05-25T06:20:23.125Z,6.62
2018-05-25T06:22:50.683Z,6.78
2018-05-25T06:25:18.238Z,7.65
2018-05-25T06:27:45.782Z,6.75
2018-05-25T06:30:13.362Z,7.57
2018-05-25T06:32:41.677Z,6.40
2018-05-25T06:35:09.209Z,7.35
2018-05-25T06:37:36.777Z,6.65
2018-05-25T06:40:05.339Z,6.10
2018-05-25T06:42:36.178Z,5.93
2018-05-25T06:45:04.517Z,5.85
2018-05-25T06:47:40.480Z,5.50
2018-05-25T06:50:10.678Z,5.45
2018-05-25T06:52:51.626Z,5.65
2018-05-25T06:55:20.120Z,5.80
2018-05-25T06:57:47.693Z,6.00
2018-05-25T07:00:15.240Z,5.63
2018-05-25T07:02:43.538Z,5.97
2018-05-25T07:05:11.111Z,5.53
2018-05-25T07:07:38.649Z,6.30
2018-05-25T07:10:06.951Z,5.60
2018-05-25T07:12:34.478Z,5.30
2018-05-25T07:15:02.073Z,5.40
2018-05-25T07:17:29.614Z,6.00
2018-05-25T07:19:57.945Z,4.80
2018-05-25T07:22:25.522Z,4.83
2018-05-25T07:24:53.103Z,4.73
2018-05-25T07:27:20.832Z,4.40
2018-05-25T07:29:48.366Z,5.03
2018-05-25T07:32:16.752Z,4.40
2018-05-25T07:34:44.302Z,4.75
2018-05-25T07:37:11.867Z,3.80
2018-05-25T07:39:40.200Z,5.20
2018-05-25T07:42:07.761Z,4.93
2018-05-25T07:44:36.140Z,5.40
2018-05-25T07:47:03.698Z,4.83
2018-05-25T07:49:31.240Z,4.70
2018-05-25T07:51:58.777Z,3.93
2018-05-25T07:54:26.406Z,4.12
2018-05-25T07:56:53.922Z,4.03
2018-05-25T07:59:22.283Z,4.10
2018-05-25T08:01:49.870Z,3.40
2018-05-25T08:04:18.787Z,4.20
2018-05-25T08:06:46.326Z,3.67
2018-05-25T08:09:14.650Z,3.37
2018-05-25T08:11:42.178Z,3.90
2018-05-25T08:14:10.488Z,3.60
2018-05-25T08:16:38.071Z,3.90
2018-05-25T08:19:05.610Z,3.80
2018-05-25T08:21:33.215Z,3.23
2018-05-25T08:24:00.765Z,4.07
2018-05-25T08:26:28.323Z,4.30
2018-05-25T08:28:55.878Z,4.30
2018-05-25T08:31:23.907Z,3.90
2018-05-25T08:33:52.978Z,4.40
2018-05-25T08:36:21.098Z,4.23
2018-05-25T08:38:48.650Z,3.70
2018-05-25T08:41:16.974Z,3.60
2018-05-25T08:43:44.546Z,3.70
2018-05-25T08:46:12.090Z,3.93
2018-05-25T08:48:39.666Z,3.50
2018-05-25T08:51:07.232Z,3.47
2018-05-25T08:53:34.893Z,3.50
2018-05-25T08:56:02.450Z,3.80
2018-05-25T08:58:30.036Z,3.53
2018-05-25T09:00:57.585Z,3.67
2018-05-25T09:03:25.139Z,3.30
2018-05-25T09:05:52.672Z,3.30
2018-05-25T09:08:21.012Z,3.70
2018-05-25T09:10:48.597Z,3.50
2018-05-25T09:13:16.134Z,3.80
2018-05-25T09:15:43.684Z,4.03
2018-05-25T09:18:11.236Z,3.90
2018-05-25T09:20:38.789Z,3.33
2018-05-25T09:23:06.381Z,4.27
2018-05-25T09:25:33.927Z,3.77
2018-05-25T09:28:02.377Z,4.13
2018-05-25T09:30:29.918Z,4.03
2018-05-25T09:32:57.479Z,3.83
2018-05-25T09:35:25.049Z,4.07
2018-05-25T09:37:52.582Z,3.80
2018-05-25T09:40:20.142Z,4.37
2018-05-25T09:42:47.707Z,3.93
2018-05-25T09:45:15.274Z,3.70
2018-05-25T09:47:42.839Z,4.27
2018-05-25T09:50:10.406Z,4.00
2018-05-25T09:52:37.978Z,3.60
2018-05-25T09:55:05.542Z,4.23
2018-05-25T09:57:33.110Z,4.23
2018-05-25T10:00:00.685Z,3.73
2018-05-25T10:02:28.223Z,4.00
2018-05-25T10:04:55.807Z,3.67
2018-05-25T10:07:23.370Z,3.30
2018-05-25T10:09:50.897Z,3.20
2018-05-25T10:12:18.434Z,3.50
2018-05-25T10:14:45.999Z,3.50
2018-05-25T10:17:14.307Z,3.37
2018-05-25T10:19:41.843Z,3.40
2018-05-25T10:22:09.378Z,3.50
2018-05-25T10:24:36.939Z,3.97
2018-05-25T10:27:04.479Z,3.63
2018-05-25T10:29:32.038Z,3.23
2018-05-25T10:31:59.579Z,3.30
2018-05-25T10:34:27.902Z,3.20
2018-05-25T10:36:55.438Z,3.13
2018-05-25T10:39:22.964Z,3.30
2018-05-25T10:41:50.574Z,3.80
2018-05-25T10:44:18.115Z,3.40
2018-05-25T10:46:46.438Z,2.97
2018-05-25T10:49:14.054Z,3.43
2018-05-25T10:51:42.373Z,3.40
2018-05-25T10:54:09.925Z,3.90
2018-05-25T10:56:37.490Z,3.33
2018-05-25T10:59:05.017Z,3.00
2018-05-25T11:01:32.598Z,3.33
2018-05-25T11:04:00.918Z,3.50
2018-05-25T11:06:28.459Z,3.47
2018-05-25T11:08:56.034Z,3.87
2018-05-25T11:11:23.574Z,4.57
2018-05-25T11:13:51.885Z,3.77
2018-05-25T11:16:19.422Z,3.13
2018-05-25T11:18:47.737Z,3.47
2018-05-25T11:21:15.278Z,3.80
2018-05-25T11:23:42.824Z,3.80
2018-05-25T11:26:10.402Z,4.07
2018-05-25T11:28:37.971Z,3.30
2018-05-25T11:31:05.523Z,3.53
2018-05-25T11:33:33.826Z,3.90
2018-05-25T11:36:01.369Z,3.50
2018-05-25T11:38:29.694Z,4.23
2018-05-25T11:40:57.221Z,4.20
2018-05-25T11:43:24.749Z,3.90
2018-05-25T11:45:52.309Z,4.00
2018-05-25T11:48:19.871Z,4.13
2018-05-25T11:50:47.437Z,4.50
2018-05-25T11:53:14.978Z,4.57
2018-05-25T11:55:42.519Z,4.07
2018-05-25T11:58:10.054Z,5.00
2018-05-25T12:00:38.384Z,4.20
2018-05-25T12:03:05.911Z,4.23
2018-05-25T12:05:33.450Z,4.10
2018-05-25T12:08:01.029Z,4.30
2018-05-25T12:10:28.571Z,3.20
2018-05-25T12:12:56.126Z,3.43
2018-05-25T12:15:23.691Z,3.50
2018-05-25T12:17:51.249Z,4.10
2018-05-25T12:20:18.813Z,3.10
2018-05-25T12:22:46.366Z,3.47
2018-05-25T12:25:13.930Z,3.40
2018-05-25T12:27:41.485Z,4.00
2018-05-25T12:30:09.053Z,3.07
2018-05-25T12:32:36.590Z,3.50
2018-05-25T12:35:04.157Z,4.23
2018-05-25T12:37:31.722Z,4.03
2018-05-25T12:39:59.264Z,3.37
2018-05-25T12:42:26.835Z,3.00
2018-05-25T12:45:07.027Z,3.17
2018-05-25T12:47:34.571Z,3.57
2018-05-25T12:50:02.130Z,3.03
2018-05-25T12:52:29.676Z,3.53
2018-05-25T12:54:57.219Z,3.10
2018-05-25T12:57:24.768Z,3.03
2018-05-25T12:59:52.305Z,3.60
2018-05-25T13:02:19.870Z,2.50
2018-05-25T13:04:47.443Z,3.30
2018-05-25T13:07:15.045Z,4.07
2018-05-25T13:09:43.473Z,3.70
2018-05-25T13:12:11.009Z,2.97
2018-05-25T13:14:38.548Z,3.33
2018-05-25T13:17:06.084Z,3.17
2018-05-25T13:19:33.612Z,3.10
2018-05-25T13:22:01.175Z,3.60
2018-05-25T13:24:28.715Z,3.70
2018-05-25T13:26:56.308Z,3.67
2018-05-25T13:29:23.874Z,3.23
2018-05-25T13:31:51.495Z,4.53
2018-05-25T13:34:19.117Z,3.50
2018-05-25T13:36:46.713Z,3.93
2018-05-25T13:39:14.271Z,3.80
2018-05-25T13:41:41.847Z,4.10
2018-05-25T13:44:09.412Z,4.20
2018-05-25T13:46:36.960Z,3.83
2018-05-25T13:49:04.495Z,4.13
2018-05-25T13:51:32.059Z,4.30
2018-05-25T13:53:59.597Z,4.30
2018-05-25T13:56:27.890Z,3.93
2018-05-25T13:58:55.466Z,4.23
2018-05-25T14:01:23.030Z,3.70
2018-05-25T14:03:50.567Z,3.30
2018-05-25T14:06:18.871Z,4.00
2018-05-25T14:08:46.411Z,3.90
2018-05-25T14:11:14.778Z,3.90
2018-05-25T14:13:42.319Z,3.37
2018-05-25T14:16:09.861Z,3.57
2018-05-25T14:18:37.455Z,3.33
2018-05-25T14:21:04.993Z,3.53
2018-05-25T14:23:32.554Z,4.30
2018-05-25T14:26:00.119Z,3.70
2018-05-25T14:28:27.688Z,3.10
2018-05-25T14:30:55.247Z,4.33
2018-05-25T14:33:22.773Z,3.90
2018-05-25T14:35:52.191Z,3.50
2018-05-25T14:38:19.811Z,4.20
2018-05-25T14:40:47.373Z,3.30
2018-05-25T14:43:14.939Z,3.60
2018-05-25T14:45:42.493Z,3.67
2018-05-25T14:48:10.022Z,4.23
2018-05-25T14:50:37.574Z,2.93
2018-05-25T14:53:05.179Z,4.10
2018-05-25T14:55:32.709Z,3.33
2018-05-25T14:58:00.266Z,3.83
2018-05-25T15:00:27.824Z,4.03
2018-05-25T15:02:56.132Z,3.80
2018-05-25T15:05:23.679Z,3.30
2018-05-25T15:07:51.209Z,3.67
2018-05-25T15:10:18.772Z,4.07
2018-05-25T15:12:46.337Z,3.70
2018-05-25T15:15:13.929Z,3.47
2018-05-25T15:17:41.467Z,4.30
2018-05-25T15:20:09.030Z,4.00
2018-05-25T15:22:36.597Z,3.70
2018-05-25T15:25:04.219Z,3.50
2018-05-25T15:27:31.744Z,3.40
2018-05-25T15:30:00.060Z,3.93
2018-05-25T15:32:27.631Z,3.10
2018-05-25T15:34:55.174Z,3.53
2018-05-25T15:37:22.738Z,3.13
2018-05-25T15:39:50.274Z,2.90
2018-05-25T15:42:18.574Z,3.03
2018-05-25T15:44:46.110Z,3.10
2018-05-25T15:47:13.698Z,2.87
2018-05-25T15:49:41.239Z,3.30
2018-05-25T15:52:08.793Z,3.13
2018-05-25T15:54:36.378Z,2.67
2018-05-25T15:57:04.693Z,2.80
2018-05-25T15:59:32.265Z,3.37
2018-05-25T16:01:59.846Z,3.90
2018-05-25T16:04:27.396Z,3.43
2018-05-25T16:06:54.953Z,3.23
2018-05-25T16:09:22.516Z,3.60
2018-05-25T16:11:50.045Z,3.83
2018-05-25T16:14:17.621Z,3.97
2018-05-25T16:16:45.177Z,3.83
2018-05-25T16:19:13.489Z,3.90
2018-05-25T16:21:41.099Z,3.63
2018-05-25T16:24:08.638Z,3.37
2018-05-25T16:26:36.198Z,3.43
2018-05-25T16:29:03.767Z,4.20
2018-05-25T16:31:31.388Z,3.50
2018-05-25T16:33:58.955Z,3.73
2018-05-25T16:36:26.484Z,3.70
2018-05-25T16:38:54.050Z,4.10
2018-05-25T16:41:21.600Z,4.23
2018-05-25T16:43:49.142Z,4.20
2018-05-25T16:46:16.747Z,3.73
2018-05-25T16:48:44.242Z,4.20
2018-05-25T16:51:11.802Z,3.70
2018-05-25T16:53:40.122Z,3.80
2018-05-25T16:56:07.662Z,3.70
2018-05-25T16:58:35.226Z,3.83
2018-05-25T17:01:02.841Z,3.10
2018-05-25T17:03:30.392Z,3.97
2018-05-25T17:05:57.953Z,3.73
2018-05-25T17:08:25.519Z,3.47
2018-05-25T17:10:53.070Z,4.20
2018-05-25T17:13:20.607Z,3.63
2018-05-25T17:15:48.157Z,3.83
2018-05-25T17:18:15.714Z,3.50
2018-05-25T17:20:44.018Z,3.20
2018-05-25T17:23:11.562Z,3.10
2018-05-25T17:25:39.881Z,2.93
2018-05-25T17:28:07.451Z,3.03
2018-05-25T17:30:35.264Z,3.33
2018-05-25T17:33:02.842Z,3.70
2018-05-25T17:35:31.146Z,3.33
2018-05-25T17:37:58.683Z,3.00
2018-05-25T17:40:27.011Z,3.20
2018-05-25T17:42:54.571Z,2.83
2018-05-25T17:45:22.118Z,2.87
2018-05-25T17:47:49.678Z,3.30
2018-05-25T17:50:17.212Z,3.33
2018-05-25T17:52:44.779Z,3.63
2018-05-25T17:55:13.118Z,3.60
2018-05-25T17:57:40.664Z,3.17
2018-05-25T18:00:08.231Z,2.90
2018-05-25T18:02:35.803Z,3.40
2018-05-25T18:05:03.337Z,3.50
2018-05-25T18:07:30.941Z,3.20
2018-05-25T18:09:58.510Z,4.13
2018-05-25T18:12:26.075Z,4.80
2018-05-25T18:14:53.642Z,4.77
2018-05-25T18:17:21.230Z,5.15
2018-05-25T18:19:48.775Z,4.17
2018-05-25T18:22:16.363Z,3.80
2018-05-25T18:24:44.709Z,3.90
2018-05-25T18:27:12.284Z,3.85
2018-05-25T18:29:39.855Z,4.18
2018-05-25T18:32:07.423Z,4.60
2018-05-25T18:34:35.063Z,4.53
2018-05-25T18:37:02.624Z,3.70
2018-05-25T18:39:30.202Z,3.72
2018-05-25T18:41:57.766Z,4.20
2018-05-25T18:44:25.317Z,3.30
2018-05-25T18:46:52.893Z,3.60
2018-05-25T18:49:20.483Z,4.97
2018-05-25T18:51:48.847Z,4.68
2018-05-25T18:54:28.354Z,4.90
2018-05-25T18:56:55.913Z,5.40
2018-05-25T18:59:23.487Z,5.60
2018-05-25T19:01:51.045Z,4.78
2018-05-25T19:04:18.601Z,4.07
2018-05-25T19:06:46.138Z,4.40
2018-05-25T19:09:13.736Z,4.62
2018-05-25T19:11:41.302Z,4.10
2018-05-25T19:14:08.850Z,4.00
2018-05-25T19:16:36.418Z,4.15
2018-05-25T19:19:03.955Z,4.37
2018-05-25T19:21:32.288Z,5.72
2018-05-25T19:23:59.825Z,5.10
2018-05-25T19:26:27.359Z,5.75
2018-05-25T19:28:54.892Z,4.60
2018-05-25T19:31:22.437Z,5.00
2018-05-25T19:33:50.008Z,4.10
2018-05-25T19:36:17.554Z,4.70
2018-05-25T19:38:45.117Z,4.75
2018-05-25T19:41:12.641Z,4.03
2018-05-25T19:43:40.198Z,4.57
2018-05-25T19:46:07.734Z,4.82
2018-05-25T19:48:35.285Z,4.40
2018-05-25T19:51:02.950Z,5.53
2018-05-25T19:53:30.519Z,4.82
2018-05-25T19:55:58.070Z,5.97
2018-05-25T19:58:25.629Z,5.70
2018-05-25T20:00:53.176Z,6.85
2018-05-25T20:03:21.514Z,5.80
2018-05-25T20:05:49.060Z,6.07
2018-05-25T20:08:16.602Z,6.97
2018-05-25T20:10:44.179Z,6.75
2018-05-25T20:13:11.717Z,6.68
2018-05-25T20:15:39.250Z,6.43
2018-05-25T20:18:06.785Z,5.22
2018-05-25T20:20:34.335Z,6.00
2018-05-25T20:23:01.878Z,7.20
2018-05-25T20:25:29.427Z,5.85
2018-05-25T20:27:57.724Z,5.47
2018-05-25T20:30:25.254Z,6.47
2018-05-25T20:32:52.794Z,7.18
2018-05-25T20:35:20.374Z,7.47
2018-05-25T20:37:47.910Z,7.40
2018-05-25T20:40:15.501Z,6.95
2018-05-25T20:42:43.039Z,6.43
2018-05-25T20:45:10.602Z,6.50
2018-05-25T20:47:38.132Z,6.62
2018-05-25T20:50:05.667Z,5.87
2018-05-25T20:52:33.199Z,6.15
2018-05-25T20:55:00.752Z,7.32
2018-05-25T20:57:28.287Z,5.45
2018-05-25T20:59:56.587Z,6.28
2018-05-25T21:02:24.135Z,7.22
2018-05-25T21:04:51.669Z,6.60
2018-05-25T21:07:19.225Z,6.15
2018-05-25T21:09:46.800Z,5.85
2018-05-25T21:12:14.366Z,5.60
2018-05-25T21:14:41.931Z,6.00
2018-05-25T21:17:09.486Z,5.62
2018-05-25T21:19:37.027Z,6.40
2018-05-25T21:22:04.562Z,7.37
2018-05-25T21:24:32.097Z,7.25
2018-05-25T21:26:59.630Z,6.72
2018-05-25T21:29:27.187Z,5.43
2018-05-25T21:31:54.720Z,7.43
2018-05-25T21:34:22.257Z,6.75
2018-05-25T21:36:50.578Z,7.18
2018-05-25T21:39:18.162Z,6.47
2018-05-25T21:41:45.688Z,6.80
2018-05-25T21:44:13.250Z,6.93
2018-05-25T21:46:40.822Z,6.60
2018-05-25T21:49:08.371Z,5.82
2018-05-25T21:51:35.917Z,7.20
2018-05-25T21:54:04.280Z,7.70
2018-05-25T21:56:32.607Z,6.07
2018-05-25T21:59:00.154Z,6.97
2018-05-25T22:01:28.469Z,7.50
2018-05-25T22:03:56.006Z,7.80
2018-05-25T22:06:23.578Z,8.60
2018-05-25T22:08:51.181Z,8.60
2018-05-25T22:11:18.740Z,6.97
2018-05-25T22:13:46.278Z,7.80
2018-05-25T22:16:13.843Z,8.00
2018-05-25T22:18:41.386Z,7.55
2018-05-25T22:21:08.937Z,6.95
2018-05-25T22:23:37.270Z,7.40
2018-05-25T22:26:04.805Z,6.90
2018-05-25T22:28:32.362Z,7.05
2018-05-25T22:30:59.916Z,7.53
2018-05-25T22:33:27.464Z,7.78
2018-05-25T22:35:55.782Z,6.68
2018-05-25T22:38:23.389Z,7.75
2018-05-25T22:40:50.934Z,8.23
2018-05-25T22:43:30.292Z,7.55
2018-05-25T22:46:09.517Z,7.35
2018-05-25T22:48:48.805Z,8.13
2018-05-25T22:51:28.082Z,6.70
2018-05-25T22:54:00.856Z,8.15
2018-05-25T22:56:28.402Z,8.30
2018-05-25T22:58:55.950Z,7.40
2018-05-25T23:01:23.519Z,7.80
2018-05-25T23:03:51.059Z,7.95
2018-05-25T23:06:18.619Z,7.57
2018-05-25T23:08:46.950Z,7.10
2018-05-25T23:11:14.487Z,7.72
2018-05-25T23:13:42.018Z,8.65
2018-05-25T23:16:10.346Z,8.43
2018-05-25T23:18:37.903Z,7.93
2018-05-25T23:21:05.457Z,8.82
2018-05-25T23:23:32.998Z,7.87
2018-05-25T23:26:01.301Z,7.43
2018-05-25T23:28:28.835Z,9.55
2018-05-25T23:30:57.163Z,9.68
2018-05-25T23:33:24.742Z,8.30
2018-05-25T23:35:52.282Z,8.95
2018-05-25T23:38:19.865Z,8.20
2018-05-25T23:40:47.398Z,7.50
2018-05-25T23:43:14.962Z,8.60
2018-05-25T23:45:42.508Z,8.20
2018-05-25T23:48:10.838Z,9.07
2018-05-25T23:50:38.374Z,7.82
2018-05-25T23:53:05.925Z,8.55
2018-05-25T23:55:33.454Z,8.48
2018-05-25T23:58:01.018Z,8.20
